Terminal Aerodrome Forecast
Issued by NWS

Current Version | Previous Version | Text Only | Print | Product List | Glossary On
Versions: 1 2 3 4 5 6 7 8 9 10 11 12 13 14 15 16 17 18 19 20 21 22 23 24
000
FTUS44 KOUN 011726
TAFCSM
TAF
KCSM 011726Z 0118/0218 20015G23KT P6SM SKC
     FM012000 18014G22KT P6SM SCT060
     FM020200 18011KT P6SM VCTS BKN040CB
      TEMPO 0202/0206 4SM -TSRA SCT035 BKN040CB OVC100
     FM020600 18012KT P6SM SCT035 BKN050 OVC180=

USA.gov is the U.S. government's official web portal to all federal, state and local government web resources and services.